createdAt,value
2019-03-19T00:00:26.358Z,1014.82
2019-03-19T00:01:26.349Z,1014.82
2019-03-19T00:02:26.337Z,1014.81
2019-03-19T00:03:26.330Z,1014.82
2019-03-19T00:04:26.321Z,1014.86
2019-03-19T00:05:26.311Z,1014.91
2019-03-19T00:06:26.302Z,1014.84
2019-03-19T00:07:26.298Z,1014.87
2019-03-19T00:08:26.284Z,1014.89
2019-03-19T00:09:26.275Z,1014.86
2019-03-19T00:10:26.266Z,1014.87
2019-03-19T00:11:26.270Z,1014.89
2019-03-19T00:12:26.247Z,1014.92
2019-03-19T00:13:26.237Z,1014.91
2019-03-19T00:14:26.229Z,1014.96
2019-03-19T00:15:26.221Z,1014.95
2019-03-19T00:16:26.208Z,1014.96
2019-03-19T00:17:26.200Z,1014.98
2019-03-19T00:18:26.192Z,1014.94
2019-03-19T00:19:26.186Z,1014.98
2019-03-19T00:20:26.171Z,1015.01
2019-03-19T00:21:26.163Z,1014.99
2019-03-19T00:22:26.156Z,1015.02
2019-03-19T00:23:26.146Z,1015.05
2019-03-19T00:24:26.133Z,1015.06
2019-03-19T00:25:30.425Z,1014.99
2019-03-19T00:26:26.112Z,1015.08
2019-03-19T00:27:26.110Z,1015.04
2019-03-19T00:28:26.095Z,1015.05
2019-03-19T00:29:26.087Z,1015.03
2019-03-19T00:30:26.080Z,1015.06
2019-03-19T00:31:26.071Z,1015.04
2019-03-19T00:32:26.058Z,1015.04
2019-03-19T00:33:26.049Z,1014.99
2019-03-19T00:34:26.043Z,1014.98
2019-03-19T00:35:26.037Z,1015.02
2019-03-19T00:36:26.024Z,1014.94
2019-03-19T00:37:26.012Z,1014.94
2019-03-19T00:38:26.003Z,1014.94
2019-03-19T00:39:25.993Z,1014.94
2019-03-19T00:40:25.984Z,1014.91
2019-03-19T00:41:25.976Z,1014.97
2019-03-19T00:42:25.969Z,1015.01
2019-03-19T00:43:25.955Z,1014.97
2019-03-19T00:44:25.947Z,1014.94
2019-03-19T00:45:25.937Z,1014.97
2019-03-19T00:46:25.929Z,1014.96
2019-03-19T00:47:25.918Z,1014.93
2019-03-19T00:48:25.918Z,1014.92
2019-03-19T00:49:25.897Z,1014.98
2019-03-19T00:50:25.888Z,1014.93
2019-03-19T00:51:25.880Z,1014.91
2019-03-19T00:52:25.869Z,1014.96
2019-03-19T00:53:25.864Z,1015.00
2019-03-19T00:54:25.852Z,1014.97
2019-03-19T00:55:25.843Z,1014.97
2019-03-19T00:56:25.883Z,1014.96
2019-03-19T00:57:25.822Z,1014.97
2019-03-19T00:58:25.813Z,1015.00
2019-03-19T00:59:25.803Z,1014.99
2019-03-19T01:00:25.794Z,1014.94
2019-03-19T01:01:25.783Z,1015.01
2019-03-19T01:02:25.774Z,1015.04
2019-03-19T01:03:25.765Z,1015.05
2019-03-19T01:04:25.754Z,1015.07
2019-03-19T01:05:25.747Z,1015.11
2019-03-19T01:06:25.737Z,1015.10
2019-03-19T01:07:25.726Z,1015.08
2019-03-19T01:08:25.715Z,1015.08
2019-03-19T01:09:25.707Z,1015.12
2019-03-19T01:10:25.697Z,1015.13
2019-03-19T01:11:25.686Z,1015.12
2019-03-19T01:12:25.675Z,1015.10
2019-03-19T01:13:25.666Z,1015.08
2019-03-19T01:14:25.659Z,1015.11
2019-03-19T01:15:25.651Z,1015.11
2019-03-19T01:16:25.638Z,1015.08
2019-03-19T01:17:25.630Z,1015.06
2019-03-19T01:18:25.617Z,1015.03
2019-03-19T01:19:25.614Z,1015.09
2019-03-19T01:20:25.599Z,1015.04
2019-03-19T01:21:25.594Z,1015.05
2019-03-19T01:22:25.583Z,1015.11
2019-03-19T01:23:25.571Z,1015.09
2019-03-19T01:24:25.564Z,1015.04
2019-03-19T01:25:25.561Z,1015.12
2019-03-19T01:26:25.542Z,1015.17
2019-03-19T01:27:25.572Z,1015.20
2019-03-19T01:28:25.523Z,1015.20
2019-03-19T01:29:25.516Z,1015.21
2019-03-19T01:30:25.503Z,1015.20
2019-03-19T01:31:25.495Z,1015.19
2019-03-19T01:32:25.489Z,1015.18
2019-03-19T01:33:25.477Z,1015.23
2019-03-19T01:34:25.465Z,1015.25
2019-03-19T01:35:25.459Z,1015.25
2019-03-19T01:36:25.448Z,1015.26
2019-03-19T01:37:25.440Z,1015.26
2019-03-19T01:38:25.427Z,1015.28
2019-03-19T01:39:25.419Z,1015.26
2019-03-19T01:40:25.411Z,1015.23
2019-03-19T01:41:25.400Z,1015.25
2019-03-19T01:42:25.390Z,1015.23
2019-03-19T01:43:25.381Z,1015.24
2019-03-19T01:44:25.371Z,1015.25
2019-03-19T01:45:25.361Z,1015.27
2019-03-19T01:46:25.351Z,1015.24
2019-03-19T01:47:25.340Z,1015.32
2019-03-19T01:48:25.332Z,1015.31
2019-03-19T01:49:25.338Z,1015.32
2019-03-19T01:50:25.314Z,1015.32
2019-03-19T01:51:25.304Z,1015.38
2019-03-19T01:52:25.291Z,1015.36
2019-03-19T01:53:25.284Z,1015.36
2019-03-19T01:54:25.276Z,1015.36
2019-03-19T01:55:25.699Z,1015.38
2019-03-19T01:56:25.256Z,1015.37
2019-03-19T01:57:25.246Z,1015.43
2019-03-19T01:58:25.234Z,1015.42
2019-03-19T01:59:25.226Z,1015.42
2019-03-19T02:00:25.217Z,1015.42
2019-03-19T02:01:25.209Z,1015.42
2019-03-19T02:02:25.195Z,1015.48
2019-03-19T02:03:25.195Z,1015.49
2019-03-19T02:04:25.188Z,1015.53
2019-03-19T02:05:25.170Z,1015.53
2019-03-19T02:06:25.158Z,1015.53
2019-03-19T02:07:25.148Z,1015.56
2019-03-19T02:08:25.139Z,1015.59
2019-03-19T02:09:25.133Z,1015.54
2019-03-19T02:10:25.117Z,1015.66
2019-03-19T02:11:25.122Z,1015.70
2019-03-19T02:12:25.095Z,1015.66
2019-03-19T02:13:25.090Z,1015.76
2019-03-19T02:14:25.081Z,1015.73
2019-03-19T02:15:25.071Z,1015.68
2019-03-19T02:16:25.063Z,1015.71
2019-03-19T02:17:25.057Z,1015.71
2019-03-19T02:18:25.055Z,1015.74
2019-03-19T02:19:25.035Z,1015.74
2019-03-19T02:20:25.027Z,1015.76
2019-03-19T02:21:25.013Z,1015.78
2019-03-19T02:22:25.004Z,1015.79
2019-03-19T02:23:24.994Z,1015.84
2019-03-19T02:24:24.983Z,1015.82
2019-03-19T02:25:24.988Z,1015.82
2019-03-19T02:26:24.965Z,1015.85
2019-03-19T02:27:24.963Z,1015.82
2019-03-19T02:28:24.943Z,1015.84
2019-03-19T02:29:24.935Z,1015.85
2019-03-19T02:30:24.939Z,1015.88
2019-03-19T02:31:24.918Z,1015.89
2019-03-19T02:32:24.906Z,1015.85
2019-03-19T02:33:24.979Z,1015.93
2019-03-19T02:34:24.887Z,1015.89
2019-03-19T02:35:24.879Z,1015.90
2019-03-19T02:36:24.872Z,1015.94
2019-03-19T02:37:24.859Z,1015.89
2019-03-19T02:38:24.853Z,1015.95
2019-03-19T02:39:24.836Z,1015.93
2019-03-19T02:40:24.826Z,1015.87
2019-03-19T02:41:24.829Z,1015.95
2019-03-19T02:42:24.811Z,1015.95
2019-03-19T02:43:24.799Z,1015.89
2019-03-19T02:44:24.789Z,1015.98
2019-03-19T02:45:24.779Z,1016.07
2019-03-19T02:46:24.775Z,1016.10
2019-03-19T02:47:24.759Z,1016.07
2019-03-19T02:48:24.746Z,1016.10
2019-03-19T02:49:24.741Z,1016.07
2019-03-19T02:50:24.732Z,1016.10
2019-03-19T02:51:24.723Z,1016.10
2019-03-19T02:52:24.710Z,1016.04
2019-03-19T02:53:24.711Z,1016.10
2019-03-19T02:54:24.692Z,1016.08
2019-03-19T02:55:24.683Z,1016.05
2019-03-19T02:56:32.401Z,1016.03
2019-03-19T02:57:24.662Z,1016.04
2019-03-19T02:58:24.648Z,1016.07
2019-03-19T02:59:24.642Z,1016.06
2019-03-19T03:00:24.625Z,1016.13
2019-03-19T03:01:24.623Z,1016.13
2019-03-19T03:02:24.610Z,1016.15
2019-03-19T03:03:24.603Z,1016.19
2019-03-19T03:04:24.615Z,1016.18
2019-03-19T03:05:24.578Z,1016.19
2019-03-19T03:06:24.568Z,1016.17
2019-03-19T03:07:24.558Z,1016.21
2019-03-19T03:08:24.546Z,1016.18
2019-03-19T03:09:24.537Z,1016.15
2019-03-19T03:10:24.529Z,1016.19
2019-03-19T03:11:24.518Z,1016.18
2019-03-19T03:12:24.508Z,1016.21
2019-03-19T03:13:24.503Z,1016.16
2019-03-19T03:14:24.490Z,1016.19
2019-03-19T03:15:24.479Z,1016.21
2019-03-19T03:16:24.468Z,1016.22
2019-03-19T03:17:24.457Z,1016.27
2019-03-19T03:18:24.447Z,1016.26
2019-03-19T03:19:24.435Z,1016.28
2019-03-19T03:20:24.426Z,1016.28
2019-03-19T03:21:24.417Z,1016.28
2019-03-19T03:22:24.417Z,1016.27
2019-03-19T03:23:24.396Z,1016.30
2019-03-19T03:24:24.397Z,1016.32
2019-03-19T03:25:24.381Z,1016.34
2019-03-19T03:26:24.367Z,1016.35
2019-03-19T03:27:24.358Z,1016.34
2019-03-19T03:28:24.350Z,1016.33
2019-03-19T03:29:24.338Z,1016.33
2019-03-19T03:30:24.479Z,1016.32
2019-03-19T03:31:24.317Z,1016.35
2019-03-19T03:32:24.312Z,1016.36
2019-03-19T03:33:24.298Z,1016.41
2019-03-19T03:34:24.284Z,1016.38
2019-03-19T03:35:24.277Z,1016.43
2019-03-19T03:36:24.265Z,1016.45
2019-03-19T03:37:24.253Z,1016.45
2019-03-19T03:38:24.246Z,1016.41
2019-03-19T03:39:24.238Z,1016.43
2019-03-19T03:40:24.225Z,1016.47
2019-03-19T03:41:24.215Z,1016.40
2019-03-19T03:42:24.218Z,1016.42
2019-03-19T03:43:24.192Z,1016.47
2019-03-19T03:44:24.184Z,1016.49
2019-03-19T03:45:24.175Z,1016.51
2019-03-19T03:46:24.214Z,1016.47
2019-03-19T03:47:24.156Z,1016.48
2019-03-19T03:48:24.141Z,1016.50
2019-03-19T03:49:24.134Z,1016.51
2019-03-19T03:50:24.122Z,1016.54
2019-03-19T03:51:24.113Z,1016.54
2019-03-19T03:52:24.101Z,1016.51
2019-03-19T03:53:24.109Z,1016.49
2019-03-19T03:54:24.081Z,1016.51
2019-03-19T03:55:24.069Z,1016.51
2019-03-19T03:56:24.063Z,1016.52
2019-03-19T03:57:24.049Z,1016.55
2019-03-19T03:58:24.048Z,1016.55
2019-03-19T03:59:24.034Z,1016.52
2019-03-19T04:00:24.082Z,1016.58
2019-03-19T04:01:24.017Z,1016.53
2019-03-19T04:02:24.000Z,1016.58
2019-03-19T04:03:24.009Z,1016.54
2019-03-19T04:04:23.981Z,1016.58
2019-03-19T04:05:23.971Z,1016.59
2019-03-19T04:06:23.959Z,1016.59
2019-03-19T04:07:23.949Z,1016.62
2019-03-19T04:08:23.939Z,1016.66
2019-03-19T04:09:23.930Z,1016.59
2019-03-19T04:10:23.923Z,1016.66
2019-03-19T04:11:23.915Z,1016.72
2019-03-19T04:12:23.906Z,1016.74
2019-03-19T04:13:23.890Z,1016.80
2019-03-19T04:14:23.878Z,1016.76
2019-03-19T04:15:23.868Z,1016.84
2019-03-19T04:16:23.856Z,1016.88
2019-03-19T04:17:23.853Z,1016.89
2019-03-19T04:18:23.839Z,1016.88
2019-03-19T04:19:23.837Z,1016.88
2019-03-19T04:20:23.832Z,1016.91
2019-03-19T04:21:23.806Z,1016.94
2019-03-19T04:22:23.798Z,1016.94
2019-03-19T04:23:23.796Z,1016.98
2019-03-19T04:24:23.776Z,1017.01
2019-03-19T04:25:23.770Z,1016.97
2019-03-19T04:26:23.763Z,1016.99
2019-03-19T04:27:23.754Z,1017.00
2019-03-19T04:28:23.738Z,1017.06
2019-03-19T04:29:23.728Z,1017.01
2019-03-19T04:30:23.718Z,1017.00
2019-03-19T04:31:23.709Z,1017.00
2019-03-19T04:32:23.697Z,1017.03
2019-03-19T04:33:23.689Z,1017.04
2019-03-19T04:34:23.673Z,1017.02
2019-03-19T04:35:23.666Z,1017.05
2019-03-19T04:36:23.656Z,1017.02
2019-03-19T04:37:23.646Z,1017.04
2019-03-19T04:38:23.651Z,1017.09
2019-03-19T04:39:23.627Z,1017.08
2019-03-19T04:40:23.615Z,1017.11
2019-03-19T04:41:23.615Z,1017.16
2019-03-19T04:42:23.598Z,1017.15
2019-03-19T04:43:23.586Z,1017.13
2019-03-19T04:44:23.576Z,1017.13
2019-03-19T04:45:23.568Z,1017.16
2019-03-19T04:46:23.555Z,1017.21
2019-03-19T04:47:23.547Z,1017.19
2019-03-19T04:48:23.537Z,1017.25
2019-03-19T04:49:23.531Z,1017.22
2019-03-19T04:50:23.515Z,1017.22
2019-03-19T04:51:23.510Z,1017.20
2019-03-19T04:52:23.508Z,1017.30
2019-03-19T04:53:24.391Z,1017.29
2019-03-19T04:54:23.475Z,1017.27
2019-03-19T04:55:23.467Z,1017.26
2019-03-19T04:56:23.455Z,1017.31
2019-03-19T04:57:27.043Z,1017.32
2019-03-19T04:58:23.436Z,1017.41
2019-03-19T04:59:23.443Z,1017.40
2019-03-19T05:00:23.416Z,1017.37
2019-03-19T05:01:23.405Z,1017.43
2019-03-19T05:02:23.396Z,1017.43
2019-03-19T05:03:23.387Z,1017.44
2019-03-19T05:04:23.377Z,1017.44
2019-03-19T05:05:23.372Z,1017.45
2019-03-19T05:06:23.360Z,1017.45
2019-03-19T05:07:23.348Z,1017.50
2019-03-19T05:08:23.338Z,1017.47
2019-03-19T05:09:23.327Z,1017.45
2019-03-19T05:10:23.321Z,1017.52
2019-03-19T05:11:23.315Z,1017.56
2019-03-19T05:12:23.300Z,1017.53
2019-03-19T05:13:23.289Z,1017.56
2019-03-19T05:14:23.282Z,1017.56
2019-03-19T05:15:23.269Z,1017.59
2019-03-19T05:16:23.275Z,1017.57
2019-03-19T05:17:23.260Z,1017.64
2019-03-19T05:18:23.244Z,1017.63
2019-03-19T05:19:23.231Z,1017.64
2019-03-19T05:20:23.223Z,1017.66
2019-03-19T05:21:23.213Z,1017.67
2019-03-19T05:22:23.206Z,1017.64
2019-03-19T05:23:23.189Z,1017.64
2019-03-19T05:24:23.185Z,1017.66
2019-03-19T05:25:23.174Z,1017.71
2019-03-19T05:26:23.165Z,1017.72
2019-03-19T05:27:23.151Z,1017.78
2019-03-19T05:28:23.140Z,1017.80
2019-03-19T05:29:23.139Z,1017.87
2019-03-19T05:30:23.124Z,1017.88
2019-03-19T05:31:23.116Z,1017.88
2019-03-19T05:32:23.103Z,1017.95
2019-03-19T05:33:23.097Z,1017.93
2019-03-19T05:34:23.089Z,1017.98
2019-03-19T05:35:23.071Z,1018.00
2019-03-19T05:36:23.067Z,1018.05
2019-03-19T05:37:23.056Z,1018.05
2019-03-19T05:38:23.052Z,1018.03
2019-03-19T05:39:23.041Z,1018.03
2019-03-19T05:40:23.023Z,1018.03
2019-03-19T05:41:23.014Z,1018.05
2019-03-19T05:42:23.006Z,1018.09
2019-03-19T05:43:22.997Z,1018.14
2019-03-19T05:44:22.993Z,1018.11
2019-03-19T05:45:22.973Z,1018.10
2019-03-19T05:46:22.968Z,1018.17
2019-03-19T05:47:22.956Z,1018.17
2019-03-19T05:48:22.944Z,1018.21
2019-03-19T05:49:22.940Z,1018.26
2019-03-19T05:50:22.976Z,1018.24
2019-03-19T05:51:22.918Z,1018.23
2019-03-19T05:52:22.908Z,1018.29
2019-03-19T05:53:22.895Z,1018.26
2019-03-19T05:54:22.889Z,1018.23
2019-03-19T05:55:22.878Z,1018.30
2019-03-19T05:56:22.868Z,1018.30
2019-03-19T05:57:22.856Z,1018.26
2019-03-19T05:58:22.849Z,1018.29
2019-03-19T05:59:22.841Z,1018.28
2019-03-19T06:00:22.832Z,1018.31
2019-03-19T06:01:22.817Z,1018.28
2019-03-19T06:02:22.810Z,1018.28
2019-03-19T06:03:22.802Z,1018.29
2019-03-19T06:04:22.791Z,1018.33
2019-03-19T06:05:22.782Z,1018.34
2019-03-19T06:06:22.773Z,1018.34
2019-03-19T06:07:22.767Z,1018.35
2019-03-19T06:08:22.755Z,1018.37
2019-03-19T06:09:22.742Z,1018.39
2019-03-19T06:10:22.735Z,1018.37
2019-03-19T06:11:22.725Z,1018.41
2019-03-19T06:12:22.716Z,1018.44
2019-03-19T06:13:22.706Z,1018.45
2019-03-19T06:14:22.696Z,1018.47
2019-03-19T06:15:22.687Z,1018.50
2019-03-19T06:16:22.675Z,1018.53
2019-03-19T06:17:22.667Z,1018.53
2019-03-19T06:18:22.659Z,1018.56
2019-03-19T06:19:22.648Z,1018.58
2019-03-19T06:20:22.712Z,1018.57
2019-03-19T06:21:22.629Z,1018.61
2019-03-19T06:22:22.619Z,1018.61
2019-03-19T06:23:22.609Z,1018.65
2019-03-19T06:24:22.600Z,1018.61
2019-03-19T06:25:22.618Z,1018.66
2019-03-19T06:26:22.582Z,1018.67
2019-03-19T06:27:22.572Z,1018.74
2019-03-19T06:28:22.561Z,1018.71
2019-03-19T06:29:22.553Z,1018.70
2019-03-19T06:30:22.546Z,1018.70
2019-03-19T06:31:22.537Z,1018.73
2019-03-19T06:32:22.523Z,1018.73
2019-03-19T06:33:22.515Z,1018.74
2019-03-19T06:34:22.506Z,1018.74
2019-03-19T06:35:22.496Z,1018.73
2019-03-19T06:36:22.489Z,1018.77
2019-03-19T06:37:22.476Z,1018.78
2019-03-19T06:38:22.467Z,1018.81
2019-03-19T06:39:22.458Z,1018.87
2019-03-19T06:40:22.455Z,1018.84
2019-03-19T06:41:22.439Z,1018.90
2019-03-19T06:42:22.432Z,1018.90
2019-03-19T06:43:22.422Z,1018.88
2019-03-19T06:44:22.417Z,1018.90
2019-03-19T06:45:23.240Z,1018.93
2019-03-19T06:46:22.391Z,1018.93
2019-03-19T06:47:22.382Z,1018.92
2019-03-19T06:48:22.374Z,1018.95
2019-03-19T06:49:22.366Z,1018.97
2019-03-19T06:50:22.356Z,1018.90
2019-03-19T06:51:22.347Z,1018.92
2019-03-19T06:52:22.337Z,1018.92
2019-03-19T06:53:22.329Z,1018.87
2019-03-19T06:54:22.321Z,1018.89
2019-03-19T06:55:22.338Z,1018.85
2019-03-19T06:56:22.304Z,1018.81
2019-03-19T06:57:22.291Z,1018.84
2019-03-19T06:58:22.283Z,1018.91
2019-03-19T06:59:22.275Z,1018.90
2019-03-19T07:00:22.265Z,1018.88
2019-03-19T07:01:22.256Z,1018.90
2019-03-19T07:02:22.248Z,1018.95
2019-03-19T07:03:22.241Z,1018.96
2019-03-19T07:04:22.232Z,1018.95
2019-03-19T07:05:22.223Z,1019.03
2019-03-19T07:06:22.212Z,1018.98
2019-03-19T07:07:22.206Z,1018.99
2019-03-19T07:08:22.199Z,1018.95
2019-03-19T07:09:22.190Z,1018.94
2019-03-19T07:10:22.195Z,1018.92
2019-03-19T07:11:22.175Z,1018.98
2019-03-19T07:12:22.216Z,1018.98
2019-03-19T07:13:22.165Z,1018.98
2019-03-19T07:14:22.152Z,1018.89
2019-03-19T07:15:22.144Z,1019.00
2019-03-19T07:16:22.136Z,1018.98
2019-03-19T07:17:22.128Z,1018.99
2019-03-19T07:18:22.123Z,1019.05
2019-03-19T07:19:22.119Z,1018.98
2019-03-19T07:20:22.108Z,1019.06
2019-03-19T07:21:22.097Z,1019.04
2019-03-19T07:22:22.087Z,1019.01
2019-03-19T07:23:22.083Z,1019.10
2019-03-19T07:24:22.074Z,1019.06
2019-03-19T07:25:22.075Z,1019.10
2019-03-19T07:26:22.058Z,1019.09
2019-03-19T07:27:22.050Z,1019.17
2019-03-19T07:28:22.575Z,1019.19
2019-03-19T07:29:22.033Z,1019.22
2019-03-19T07:30:22.025Z,1019.18
2019-03-19T07:31:30.398Z,1019.20
2019-03-19T07:32:22.008Z,1019.27
2019-03-19T07:33:22.004Z,1019.28
2019-03-19T07:34:21.993Z,1019.21
2019-03-19T07:35:21.987Z,1019.22
2019-03-19T07:36:21.989Z,1019.25
2019-03-19T07:37:21.966Z,1019.24
2019-03-19T07:38:21.963Z,1019.30
2019-03-19T07:39:21.951Z,1019.35
2019-03-19T07:40:21.943Z,1019.31
2019-03-19T07:41:21.935Z,1019.33
2019-03-19T07:42:21.928Z,1019.33
2019-03-19T07:43:21.918Z,1019.39
2019-03-19T07:44:21.910Z,1019.35
2019-03-19T07:45:21.902Z,1019.37
2019-03-19T07:46:21.903Z,1019.42
2019-03-19T07:47:21.885Z,1019.45
2019-03-19T07:48:21.873Z,1019.45
2019-03-19T07:49:21.866Z,1019.44
2019-03-19T07:50:21.857Z,1019.50
2019-03-19T07:51:21.852Z,1019.50
2019-03-19T07:52:21.840Z,1019.49
2019-03-19T07:53:21.840Z,1019.53
2019-03-19T07:54:22.726Z,1019.56
2019-03-19T07:55:21.820Z,1019.59
2019-03-19T07:56:21.806Z,1019.61
2019-03-19T07:57:21.824Z,1019.57
2019-03-19T07:58:32.683Z,1019.60
2019-03-19T07:59:21.782Z,1019.64
2019-03-19T08:00:21.772Z,1019.69
2019-03-19T08:01:21.768Z,1019.66
2019-03-19T08:02:21.755Z,1019.69
2019-03-19T08:03:21.747Z,1019.70
2019-03-19T08:04:21.740Z,1019.68
2019-03-19T08:05:32.258Z,1019.71
2019-03-19T08:06:21.730Z,1019.75
2019-03-19T08:07:21.715Z,1019.79
2019-03-19T08:08:21.708Z,1019.80
2019-03-19T08:09:21.706Z,1019.76
2019-03-19T08:10:21.688Z,1019.80
2019-03-19T08:11:21.687Z,1019.83
2019-03-19T08:12:21.671Z,1019.82
2019-03-19T08:13:21.665Z,1019.84
2019-03-19T08:14:21.659Z,1019.86
2019-03-19T08:15:21.654Z,1019.82
2019-03-19T08:16:27.354Z,1019.85
2019-03-19T08:17:21.633Z,1019.86
2019-03-19T08:18:21.630Z,1019.87
2019-03-19T08:19:21.620Z,1019.91
2019-03-19T08:20:21.608Z,1019.92
2019-03-19T08:21:22.581Z,1019.90
2019-03-19T08:22:21.594Z,1019.89
2019-03-19T08:23:21.584Z,1019.94
2019-03-19T08:24:21.582Z,1019.96
2019-03-19T08:25:21.568Z,1020.01
2019-03-19T08:26:21.563Z,1019.98
2019-03-19T08:27:21.557Z,1019.95
2019-03-19T08:28:21.543Z,1019.95
2019-03-19T08:29:21.538Z,1019.96
2019-03-19T08:30:24.085Z,1019.98
2019-03-19T08:31:21.523Z,1020.00
2019-03-19T08:32:21.520Z,1020.08
2019-03-19T08:33:21.516Z,1020.08
2019-03-19T08:34:21.499Z,1020.13
2019-03-19T08:35:21.492Z,1020.10
2019-03-19T08:36:21.481Z,1020.12
2019-03-19T08:37:21.476Z,1020.12
2019-03-19T08:38:21.467Z,1020.13
2019-03-19T08:39:21.463Z,1020.10
2019-03-19T08:40:21.452Z,1020.12
2019-03-19T08:41:21.443Z,1020.17
2019-03-19T08:42:21.436Z,1020.12
2019-03-19T08:43:21.430Z,1020.12
2019-03-19T08:44:27.762Z,1020.14
2019-03-19T08:45:21.413Z,1020.10
2019-03-19T08:46:21.406Z,1020.13
2019-03-19T08:47:21.402Z,1020.09
2019-03-19T08:48:21.393Z,1020.09
2019-03-19T08:49:22.325Z,1020.06
2019-03-19T08:50:21.377Z,1020.09
2019-03-19T08:51:21.367Z,1020.04
2019-03-19T08:52:21.357Z,1020.02
2019-03-19T08:53:21.349Z,1020.04
2019-03-19T08:54:21.344Z,1020.09
2019-03-19T08:55:21.336Z,1020.05
2019-03-19T08:56:21.327Z,1020.09
2019-03-19T08:57:21.320Z,1020.07
2019-03-19T08:58:21.313Z,1020.04
2019-03-19T08:59:21.308Z,1020.04
2019-03-19T09:00:21.298Z,1020.03
2019-03-19T09:01:21.289Z,1020.06
2019-03-19T09:02:21.281Z,1020.08
2019-03-19T09:03:21.278Z,1020.12
2019-03-19T09:04:21.265Z,1020.12
2019-03-19T09:05:21.259Z,1020.10
2019-03-19T09:06:21.253Z,1020.09
2019-03-19T09:07:21.248Z,1020.07
2019-03-19T09:08:21.233Z,1020.09
2019-03-19T09:09:21.228Z,1020.10
2019-03-19T09:10:21.222Z,1020.10
2019-03-19T09:11:21.214Z,1020.13
2019-03-19T09:12:21.204Z,1020.12
2019-03-19T09:13:21.198Z,1020.07
2019-03-19T09:14:21.197Z,1020.10
2019-03-19T09:15:21.182Z,1020.14
2019-03-19T09:16:21.173Z,1020.18
2019-03-19T09:17:21.167Z,1020.18
2019-03-19T09:18:21.160Z,1020.17
2019-03-19T09:19:21.155Z,1020.23
2019-03-19T09:20:21.142Z,1020.13
2019-03-19T09:21:21.139Z,1020.26
2019-03-19T09:22:21.129Z,1020.25
2019-03-19T09:23:21.123Z,1020.23
2019-03-19T09:24:21.115Z,1020.28
2019-03-19T09:25:21.110Z,1020.27
2019-03-19T09:26:21.112Z,1020.19
2019-03-19T09:27:21.092Z,1020.28
2019-03-19T09:28:21.080Z,1020.29
2019-03-19T09:29:21.076Z,1020.27
2019-03-19T09:30:21.070Z,1020.28
2019-03-19T09:31:21.064Z,1020.26
2019-03-19T09:32:21.055Z,1020.29
2019-03-19T09:33:21.049Z,1020.29
2019-03-19T09:34:21.041Z,1020.29
2019-03-19T09:35:21.033Z,1020.30
2019-03-19T09:36:21.030Z,1020.36
2019-03-19T09:37:21.018Z,1020.35
2019-03-19T09:38:21.008Z,1020.34
2019-03-19T09:39:21.006Z,1020.31
2019-03-19T09:40:21.002Z,1020.28
2019-03-19T09:41:20.990Z,1020.34
2019-03-19T09:42:20.984Z,1020.25
2019-03-19T09:43:20.976Z,1020.30
2019-03-19T09:44:20.970Z,1020.32
2019-03-19T09:45:20.966Z,1020.33
2019-03-19T09:46:20.952Z,1020.29
2019-03-19T09:47:20.947Z,1020.29
2019-03-19T09:48:20.939Z,1020.32
2019-03-19T09:49:21.195Z,1020.34
2019-03-19T09:50:20.926Z,1020.38
2019-03-19T09:51:20.920Z,1020.39
2019-03-19T09:52:20.911Z,1020.39
2019-03-19T09:53:20.907Z,1020.37
2019-03-19T09:54:20.899Z,1020.41
2019-03-19T09:55:20.890Z,1020.39
2019-03-19T09:56:20.883Z,1020.41
2019-03-19T09:57:20.875Z,1020.43
2019-03-19T09:58:20.872Z,1020.41
2019-03-19T09:59:27.127Z,1020.45
2019-03-19T10:00:20.855Z,1020.38
2019-03-19T10:01:20.848Z,1020.43
2019-03-19T10:02:20.841Z,1020.45
2019-03-19T10:03:20.835Z,1020.44
2019-03-19T10:04:20.826Z,1020.31
2019-03-19T10:05:20.825Z,1020.38
2019-03-19T10:06:20.814Z,1020.42
2019-03-19T10:07:20.806Z,1020.39
2019-03-19T10:08:20.798Z,1020.43
2019-03-19T10:09:20.789Z,1020.49
2019-03-19T10:10:20.796Z,1020.45
2019-03-19T10:11:20.786Z,1020.54
2019-03-19T10:12:20.771Z,1020.52
2019-03-19T10:13:20.792Z,1020.51
2019-03-19T10:14:20.761Z,1020.52
2019-03-19T10:15:20.753Z,1020.54
2019-03-19T10:16:20.743Z,1020.57
2019-03-19T10:17:20.735Z,1020.52
2019-03-19T10:18:20.730Z,1020.49
2019-03-19T10:19:20.728Z,1020.50
2019-03-19T10:20:20.717Z,1020.54
2019-03-19T10:21:20.710Z,1020.56
2019-03-19T10:22:20.706Z,1020.63
2019-03-19T10:23:20.704Z,1020.59
2019-03-19T10:24:20.692Z,1020.71
2019-03-19T10:25:20.697Z,1020.65
2019-03-19T10:26:20.678Z,1020.69
2019-03-19T10:27:20.670Z,1020.72
2019-03-19T10:28:20.662Z,1020.77
2019-03-19T10:29:20.658Z,1020.76
2019-03-19T10:30:20.647Z,1020.82
2019-03-19T10:31:20.643Z,1020.72
2019-03-19T10:32:20.634Z,1020.68
2019-03-19T10:33:20.629Z,1020.69
2019-03-19T10:34:20.619Z,1020.67
2019-03-19T10:35:20.613Z,1020.71
2019-03-19T10:36:20.605Z,1020.70
2019-03-19T10:37:20.597Z,1020.70
2019-03-19T10:38:20.593Z,1020.67
2019-03-19T10:39:20.584Z,1020.70
2019-03-19T10:40:20.582Z,1020.70
2019-03-19T10:41:20.570Z,1020.65
2019-03-19T10:42:20.564Z,1020.65
2019-03-19T10:43:20.555Z,1020.67
2019-03-19T10:44:20.551Z,1020.67
2019-03-19T10:45:21.449Z,1020.67
2019-03-19T10:46:20.537Z,1020.68
2019-03-19T10:47:20.528Z,1020.75
2019-03-19T10:48:20.519Z,1020.75
2019-03-19T10:49:20.511Z,1020.75
2019-03-19T10:50:20.510Z,1020.77
2019-03-19T10:51:20.500Z,1020.73
2019-03-19T10:52:20.494Z,1020.72
2019-03-19T10:53:20.486Z,1020.69
2019-03-19T10:54:20.483Z,1020.69
2019-03-19T10:55:20.470Z,1020.69
2019-03-19T10:56:20.478Z,1020.70
2019-03-19T10:57:20.454Z,1020.67
2019-03-19T10:58:20.450Z,1020.66
2019-03-19T10:59:20.446Z,1020.66
2019-03-19T11:00:20.441Z,1020.67
2019-03-19T11:01:20.430Z,1020.67
2019-03-19T11:02:20.424Z,1020.70
2019-03-19T11:03:20.417Z,1020.67
2019-03-19T11:04:20.411Z,1020.67
2019-03-19T11:05:20.404Z,1020.66
2019-03-19T11:06:20.397Z,1020.68
2019-03-19T11:07:20.389Z,1020.67
2019-03-19T11:08:20.385Z,1020.62
2019-03-19T11:09:20.377Z,1020.59
2019-03-19T11:10:20.370Z,1020.62
2019-03-19T11:11:20.366Z,1020.66
2019-03-19T11:12:20.364Z,1020.60
2019-03-19T11:13:20.350Z,1020.69
2019-03-19T11:14:20.347Z,1020.67
2019-03-19T11:15:20.341Z,1020.66
2019-03-19T11:16:20.334Z,1020.69
2019-03-19T11:17:20.329Z,1020.66
2019-03-19T11:18:20.325Z,1020.63
2019-03-19T11:19:20.319Z,1020.66
2019-03-19T11:20:20.310Z,1020.73
2019-03-19T11:21:20.303Z,1020.71
2019-03-19T11:22:20.304Z,1020.78
2019-03-19T11:23:20.297Z,1020.72
2019-03-19T11:24:20.286Z,1020.84
2019-03-19T11:25:20.279Z,1020.82
2019-03-19T11:26:20.274Z,1020.86
2019-03-19T11:27:20.268Z,1020.87
2019-03-19T11:28:20.426Z,1020.87
2019-03-19T11:29:20.255Z,1020.85
2019-03-19T11:30:20.250Z,1020.87
2019-03-19T11:31:20.243Z,1020.83
2019-03-19T11:32:20.236Z,1020.86
2019-03-19T11:33:20.233Z,1020.83
2019-03-19T11:34:20.223Z,1020.78
2019-03-19T11:35:20.219Z,1020.82
2019-03-19T11:36:20.209Z,1020.82
2019-03-19T11:37:20.201Z,1020.90
2019-03-19T11:38:20.198Z,1020.81
2019-03-19T11:39:20.192Z,1020.88
2019-03-19T11:40:20.186Z,1020.93
2019-03-19T11:41:20.551Z,1020.87
2019-03-19T11:42:20.203Z,1020.93
2019-03-19T11:43:20.236Z,1020.92
2019-03-19T11:44:20.621Z,1020.92
2019-03-19T11:45:20.405Z,1020.89
2019-03-19T11:46:20.208Z,1020.86
2019-03-19T11:47:20.304Z,1020.88
2019-03-19T11:48:20.135Z,1020.93
2019-03-19T11:49:20.128Z,1020.94
2019-03-19T11:50:20.121Z,1020.94
2019-03-19T11:51:20.120Z,1020.91
2019-03-19T11:52:20.111Z,1020.92
2019-03-19T11:53:20.100Z,1020.94
2019-03-19T11:54:20.099Z,1020.99
2019-03-19T11:55:20.094Z,1020.92
2019-03-19T11:56:20.084Z,1020.96
2019-03-19T11:57:20.078Z,1020.97
2019-03-19T11:58:20.073Z,1021.01
2019-03-19T11:59:20.067Z,1020.96
2019-03-19T12:00:20.059Z,1020.99
2019-03-19T12:01:20.113Z,1021.02
2019-03-19T12:02:25.907Z,1021.04
2019-03-19T12:03:20.063Z,1021.01
2019-03-19T12:04:20.033Z,1021.02
2019-03-19T12:05:20.023Z,1021.00